createdAt,value
2018-06-11T00:00:30.389Z,0
2018-06-11T00:01:30.353Z,0
2018-06-11T00:02:30.387Z,0
2018-06-11T00:03:30.393Z,0
2018-06-11T00:04:30.363Z,0
2018-06-11T00:05:30.315Z,0
2018-06-11T00:06:30.458Z,0
2018-06-11T00:07:30.363Z,0
2018-06-11T00:08:30.306Z,0
2018-06-11T00:09:30.319Z,0
2018-06-11T00:10:30.365Z,0
2018-06-11T00:11:30.296Z,0
2018-06-11T00:12:30.311Z,0
2018-06-11T00:13:30.295Z,0
2018-06-11T00:14:30.399Z,0
2018-06-11T00:15:30.367Z,0
2018-06-11T00:16:30.348Z,0
2018-06-11T00:17:30.335Z,0
2018-06-11T00:18:30.397Z,0
2018-06-11T00:19:30.367Z,0
2018-06-11T00:20:30.370Z,0
2018-06-11T00:21:30.309Z,0
2018-06-11T00:22:30.471Z,0
2018-06-11T00:23:30.399Z,0
2018-06-11T00:24:30.309Z,0
2018-06-11T00:25:30.345Z,0
2018-06-11T00:26:30.392Z,0
2018-06-11T00:27:30.352Z,0
2018-06-11T00:28:30.339Z,0
2018-06-11T00:29:30.291Z,0
2018-06-11T00:30:30.300Z,0
2018-06-11T00:31:30.436Z,0
2018-06-11T00:32:30.398Z,0
2018-06-11T00:33:30.315Z,0
2018-06-11T00:34:30.397Z,0
2018-06-11T00:35:30.383Z,0
2018-06-11T00:36:30.389Z,0
2018-06-11T00:37:30.386Z,0
2018-06-11T00:38:30.388Z,0
2018-06-11T00:39:30.308Z,0
2018-06-11T00:40:30.407Z,0
2018-06-11T00:41:30.332Z,0
2018-06-11T00:42:30.389Z,0
2018-06-11T00:43:30.350Z,0
2018-06-11T00:44:30.380Z,0
2018-06-11T00:45:30.380Z,0
2018-06-11T00:46:30.310Z,0
2018-06-11T00:47:30.381Z,0
2018-06-11T00:48:30.372Z,0
2018-06-11T00:49:30.316Z,0
2018-06-11T00:50:30.381Z,0
2018-06-11T00:51:30.311Z,0
2018-06-11T00:52:30.384Z,0
2018-06-11T00:53:30.340Z,0
2018-06-11T00:54:30.272Z,0
2018-06-11T00:55:30.312Z,0
2018-06-11T00:56:30.341Z,0
2018-06-11T00:57:30.311Z,0
2018-06-11T00:58:30.259Z,0
2018-06-11T00:59:30.263Z,0
2018-06-11T01:00:30.350Z,0
2018-06-11T01:01:30.311Z,0
2018-06-11T01:02:30.319Z,0
2018-06-11T01:03:30.315Z,0
2018-06-11T01:04:30.330Z,0
2018-06-11T01:05:30.393Z,0
2018-06-11T01:06:30.325Z,0
2018-06-11T01:07:30.396Z,0
2018-06-11T01:08:30.331Z,0
2018-06-11T01:09:30.397Z,0
2018-06-11T01:10:30.395Z,0
2018-06-11T01:11:30.329Z,0
2018-06-11T01:12:30.329Z,0
2018-06-11T01:13:30.403Z,0
2018-06-11T01:14:30.416Z,0
2018-06-11T01:15:30.413Z,0
2018-06-11T01:16:30.352Z,0
2018-06-11T01:17:30.342Z,0
2018-06-11T01:18:30.344Z,0
2018-06-11T01:19:30.344Z,0
2018-06-11T01:20:30.342Z,0
2018-06-11T01:21:30.410Z,0
2018-06-11T01:22:30.346Z,0
2018-06-11T01:23:30.345Z,0
2018-06-11T01:24:30.419Z,0
2018-06-11T01:25:30.440Z,0
2018-06-11T01:26:30.397Z,0
2018-06-11T01:27:30.334Z,0
2018-06-11T01:28:30.454Z,0
2018-06-11T01:29:30.411Z,0
2018-06-11T01:30:30.458Z,0
2018-06-11T01:31:30.319Z,0
2018-06-11T01:32:30.420Z,0
2018-06-11T01:33:30.346Z,0
2018-06-11T01:34:30.343Z,0
2018-06-11T01:35:30.414Z,0
2018-06-11T01:36:30.346Z,0
2018-06-11T01:37:30.413Z,0
2018-06-11T01:38:30.344Z,0
2018-06-11T01:39:30.343Z,0
2018-06-11T01:40:30.419Z,0
2018-06-11T01:41:30.348Z,0
2018-06-11T01:42:30.457Z,0
2018-06-11T01:43:30.352Z,0
2018-06-11T01:44:30.473Z,0
2018-06-11T01:45:30.357Z,0
2018-06-11T01:46:30.359Z,0
2018-06-11T01:47:30.359Z,0
2018-06-11T01:48:30.359Z,0
2018-06-11T01:49:30.362Z,0
2018-06-11T01:50:30.442Z,0
2018-06-11T01:51:30.441Z,0
2018-06-11T01:52:30.362Z,0
2018-06-11T01:53:30.434Z,0
2018-06-11T01:54:30.355Z,0
2018-06-11T01:55:30.481Z,0
2018-06-11T01:56:30.456Z,0
2018-06-11T01:57:30.453Z,0
2018-06-11T01:58:30.477Z,0
2018-06-11T01:59:30.414Z,0
2018-06-11T02:00:30.435Z,0
2018-06-11T02:01:30.477Z,0
2018-06-11T02:02:30.439Z,0
2018-06-11T02:03:30.473Z,0
2018-06-11T02:04:30.361Z,0
2018-06-11T02:05:30.437Z,0
2018-06-11T02:06:30.360Z,0
2018-06-11T02:07:30.439Z,0
2018-06-11T02:08:30.367Z,0
2018-06-11T02:09:30.437Z,0
2018-06-11T02:10:30.365Z,0
2018-06-11T02:11:30.436Z,0
2018-06-11T02:12:30.365Z,0
2018-06-11T02:13:30.323Z,0
2018-06-11T02:14:30.428Z,0
2018-06-11T02:15:30.470Z,0
2018-06-11T02:16:30.424Z,0
2018-06-11T02:17:30.468Z,0
2018-06-11T02:18:30.408Z,0
2018-06-11T02:19:30.507Z,0
2018-06-11T02:20:30.431Z,0
2018-06-11T02:21:30.425Z,0
2018-06-11T02:22:30.411Z,0
2018-06-11T02:23:30.391Z,0
2018-06-11T02:24:30.339Z,0
2018-06-11T02:25:30.242Z,0
2018-06-11T02:26:30.345Z,0
2018-06-11T02:27:30.335Z,0
2018-06-11T02:28:30.339Z,0
2018-06-11T02:29:30.238Z,0
2018-06-11T02:30:30.344Z,0
2018-06-11T02:31:30.246Z,0
2018-06-11T02:32:30.252Z,0
2018-06-11T02:33:30.255Z,0
2018-06-11T02:34:30.322Z,0
2018-06-11T02:35:30.323Z,0
2018-06-11T02:36:30.379Z,0
2018-06-11T02:37:30.323Z,0
2018-06-11T02:38:30.326Z,0
2018-06-11T02:39:30.327Z,0
2018-06-11T02:40:30.382Z,0
2018-06-11T02:41:30.383Z,0
2018-06-11T02:42:30.384Z,0
2018-06-11T02:43:30.329Z,0
2018-06-11T02:44:30.395Z,0
2018-06-11T02:45:30.467Z,0
2018-06-11T02:46:30.391Z,0
2018-06-11T02:47:30.462Z,0
2018-06-11T02:48:30.389Z,0
2018-06-11T02:49:30.468Z,0
2018-06-11T02:50:30.393Z,0
2018-06-11T02:51:30.466Z,0
2018-06-11T02:52:30.393Z,0
2018-06-11T02:53:30.465Z,0
2018-06-11T02:54:30.392Z,0
2018-06-11T02:55:30.466Z,0
2018-06-11T02:56:30.397Z,0
2018-06-11T02:57:30.466Z,0
2018-06-11T02:58:30.466Z,0
2018-06-11T02:59:30.400Z,0
2018-06-11T03:00:30.469Z,0
2018-06-11T03:01:30.404Z,0
2018-06-11T03:02:30.474Z,0
2018-06-11T03:03:30.404Z,0
2018-06-11T03:04:30.351Z,0
2018-06-11T03:05:30.375Z,0
2018-06-11T03:06:30.469Z,0
2018-06-11T03:07:30.372Z,0
2018-06-11T03:08:30.379Z,0
2018-06-11T03:09:30.466Z,0
2018-06-11T03:10:30.399Z,0
2018-06-11T03:11:30.466Z,0
2018-06-11T03:12:30.463Z,0
2018-06-11T03:13:30.469Z,0
2018-06-11T03:14:30.428Z,0
2018-06-11T03:15:30.418Z,0
2018-06-11T03:16:30.418Z,0
2018-06-11T03:17:30.460Z,0
2018-06-11T03:18:30.493Z,0
2018-06-11T03:19:30.492Z,0
2018-06-11T03:20:30.384Z,0
2018-06-11T03:21:30.497Z,0
2018-06-11T03:22:30.426Z,0
2018-06-11T03:23:30.424Z,0
2018-06-11T03:24:30.428Z,0
2018-06-11T03:25:30.548Z,0
2018-06-11T03:26:30.502Z,0
2018-06-11T03:27:30.503Z,0
2018-06-11T03:28:30.494Z,0
2018-06-11T03:29:30.586Z,0
2018-06-11T03:30:30.478Z,0
2018-06-11T03:31:30.530Z,0
2018-06-11T03:32:30.527Z,0
2018-06-11T03:33:30.544Z,0
2018-06-11T03:34:30.439Z,0
2018-06-11T03:35:30.496Z,0
2018-06-11T03:36:30.444Z,0
2018-06-11T03:37:30.419Z,0
2018-06-11T03:38:30.559Z,0
2018-06-11T03:39:30.460Z,0
2018-06-11T03:40:30.529Z,0
2018-06-11T03:41:30.513Z,0
2018-06-11T03:42:30.540Z,0
2018-06-11T03:43:30.543Z,0
2018-06-11T03:44:30.482Z,0
2018-06-11T03:45:30.547Z,0
2018-06-11T03:46:30.443Z,0
2018-06-11T03:47:30.431Z,0
2018-06-11T03:48:30.430Z,0
2018-06-11T03:49:30.449Z,0
2018-06-11T03:50:30.481Z,0
2018-06-11T03:51:30.507Z,0
2018-06-11T03:52:30.482Z,0
2018-06-11T03:53:30.435Z,0
2018-06-11T03:54:30.506Z,0
2018-06-11T03:55:30.435Z,0
2018-06-11T03:56:30.436Z,0
2018-06-11T03:57:30.509Z,0
2018-06-11T03:58:30.441Z,0
2018-06-11T03:59:30.439Z,0
2018-06-11T04:00:30.509Z,0
2018-06-11T04:01:30.438Z,0
2018-06-11T04:02:30.510Z,0
2018-06-11T04:03:30.445Z,0
2018-06-11T04:04:30.553Z,0
2018-06-11T04:05:30.558Z,0
2018-06-11T04:06:30.526Z,0
2018-06-11T04:07:30.499Z,0
2018-06-11T04:08:30.491Z,0
2018-06-11T04:09:30.443Z,0
2018-06-11T04:10:30.504Z,0
2018-06-11T04:11:30.491Z,0
2018-06-11T04:12:30.526Z,0
2018-06-11T04:13:30.450Z,0
2018-06-11T04:14:30.478Z,0
2018-06-11T04:15:30.383Z,0
2018-06-11T04:16:30.383Z,0
2018-06-11T04:17:30.430Z,0
2018-06-11T04:18:30.475Z,0
2018-06-11T04:19:30.428Z,0
2018-06-11T04:20:30.390Z,0
2018-06-11T04:21:30.429Z,0
2018-06-11T04:22:30.396Z,15
2018-06-11T04:23:30.474Z,13
2018-06-11T04:24:30.492Z,12
2018-06-11T04:25:30.408Z,11
2018-06-11T04:26:30.451Z,12
2018-06-11T04:27:30.454Z,12
2018-06-11T04:28:30.449Z,11
2018-06-11T04:29:30.410Z,11
2018-06-11T04:30:30.547Z,10
2018-06-11T04:31:30.579Z,12
2018-06-11T04:32:30.526Z,14
2018-06-11T04:33:30.502Z,17
2018-06-11T04:34:30.440Z,20
2018-06-11T04:35:30.499Z,20
2018-06-11T04:36:30.616Z,19
2018-06-11T04:37:30.463Z,19
2018-06-11T04:38:30.520Z,18
2018-06-11T04:39:30.539Z,20
2018-06-11T04:40:30.518Z,21
2018-06-11T04:41:30.495Z,23
2018-06-11T04:42:30.540Z,25
2018-06-11T04:43:30.484Z,26
2018-06-11T04:44:30.522Z,26
2018-06-11T04:45:30.453Z,24
2018-06-11T04:46:30.577Z,21
2018-06-11T04:47:30.484Z,21
2018-06-11T04:48:30.512Z,24
2018-06-11T04:49:30.583Z,29
2018-06-11T04:50:30.524Z,32
2018-06-11T04:51:30.465Z,33
2018-06-11T04:52:30.565Z,32
2018-06-11T04:53:30.471Z,29
2018-06-11T04:54:30.581Z,27
2018-06-11T04:55:30.509Z,26
2018-06-11T04:56:30.549Z,27
2018-06-11T04:57:30.458Z,27
2018-06-11T04:58:30.553Z,31
2018-06-11T04:59:30.576Z,34
2018-06-11T05:00:30.555Z,38
2018-06-11T05:01:30.480Z,43
2018-06-11T05:02:30.519Z,45
2018-06-11T05:03:30.562Z,46
2018-06-11T05:04:30.492Z,47
2018-06-11T05:05:30.555Z,50
2018-06-11T05:06:30.488Z,50
2018-06-11T05:07:30.491Z,49
2018-06-11T05:08:30.564Z,47
2018-06-11T05:09:30.561Z,46
2018-06-11T05:10:30.493Z,46
2018-06-11T05:11:30.564Z,53
2018-06-11T05:12:30.492Z,56
2018-06-11T05:13:30.498Z,54
2018-06-11T05:14:30.520Z,43
2018-06-11T05:15:30.579Z,37
2018-06-11T05:16:30.496Z,38
2018-06-11T05:17:30.499Z,28
2018-06-11T05:18:30.500Z,33
2018-06-11T05:19:30.499Z,27
2018-06-11T05:20:30.572Z,21
2018-06-11T05:21:30.592Z,20
2018-06-11T05:22:30.503Z,19
2018-06-11T05:23:30.533Z,20
2018-06-11T05:24:30.513Z,21
2018-06-11T05:25:30.477Z,23
2018-06-11T05:26:30.646Z,27
2018-06-11T05:27:30.651Z,36
2018-06-11T05:28:30.605Z,46
2018-06-11T05:29:30.483Z,60
2018-06-11T05:30:30.613Z,68
2018-06-11T05:31:30.553Z,71
2018-06-11T05:32:30.534Z,73
2018-06-11T05:33:30.646Z,77
2018-06-11T05:34:30.601Z,80
2018-06-11T05:35:30.578Z,80
2018-06-11T05:36:30.509Z,79
2018-06-11T05:37:30.584Z,76
2018-06-11T05:38:30.553Z,72
2018-06-11T05:39:30.558Z,65
2018-06-11T05:40:30.569Z,61
2018-06-11T05:41:30.590Z,57
2018-06-11T05:42:30.518Z,55
2018-06-11T05:43:30.586Z,60
2018-06-11T05:44:30.486Z,64
2018-06-11T05:45:30.605Z,63
2018-06-11T05:46:30.588Z,60
2018-06-11T05:47:30.508Z,59
2018-06-11T05:48:30.621Z,56
2018-06-11T05:49:30.618Z,56
2018-06-11T05:50:30.529Z,54
2018-06-11T05:51:30.514Z,53
2018-06-11T05:52:30.617Z,54
2018-06-11T05:53:30.581Z,56
2018-06-11T05:54:30.560Z,59
2018-06-11T05:55:30.595Z,64
2018-06-11T05:56:30.547Z,72
2018-06-11T05:57:30.603Z,81
2018-06-11T05:58:30.535Z,86
2018-06-11T05:59:30.595Z,89
2018-06-11T06:00:30.601Z,93
2018-06-11T06:01:30.526Z,98
2018-06-11T06:02:30.598Z,100
2018-06-11T06:03:30.533Z,103
2018-06-11T06:04:30.536Z,98
2018-06-11T06:05:30.602Z,83
2018-06-11T06:06:30.561Z,72
2018-06-11T06:07:30.534Z,61
2018-06-11T06:08:30.484Z,53
2018-06-11T06:09:30.532Z,50
2018-06-11T06:10:30.602Z,48
2018-06-11T06:11:30.541Z,44
2018-06-11T06:12:30.535Z,44
2018-06-11T06:13:30.536Z,46
2018-06-11T06:14:30.606Z,50
2018-06-11T06:15:30.625Z,55
2018-06-11T06:16:30.577Z,57
2018-06-11T06:17:30.574Z,56
2018-06-11T06:18:30.542Z,56
2018-06-11T06:19:30.597Z,63
2018-06-11T06:20:30.636Z,73
2018-06-11T06:21:30.584Z,83
2018-06-11T06:22:30.640Z,90
2018-06-11T06:23:30.551Z,90
2018-06-11T06:24:30.578Z,86
2018-06-11T06:25:30.612Z,84
2018-06-11T06:26:30.592Z,90
2018-06-11T06:27:30.645Z,102
2018-06-11T06:28:30.615Z,113
2018-06-11T06:29:30.594Z,116
2018-06-11T06:30:30.556Z,111
2018-06-11T06:31:30.634Z,118
2018-06-11T06:32:30.650Z,119
2018-06-11T06:33:30.569Z,132
2018-06-11T06:34:30.728Z,143
2018-06-11T06:35:30.575Z,159
2018-06-11T06:36:30.672Z,172
2018-06-11T06:37:30.615Z,185
2018-06-11T06:38:30.643Z,188
2018-06-11T06:39:30.584Z,184
2018-06-11T06:40:30.695Z,179
2018-06-11T06:41:30.600Z,180
2018-06-11T06:42:30.648Z,185
2018-06-11T06:43:30.550Z,192
2018-06-11T06:44:30.600Z,201
2018-06-11T06:45:30.629Z,209
2018-06-11T06:46:30.559Z,221
2018-06-11T06:47:30.630Z,237
2018-06-11T06:48:30.558Z,255
2018-06-11T06:49:30.627Z,271
2018-06-11T06:50:30.559Z,277
2018-06-11T06:51:30.640Z,264
2018-06-11T06:52:30.562Z,253
2018-06-11T06:53:30.635Z,257
2018-06-11T06:54:30.628Z,261
2018-06-11T06:55:30.668Z,260
2018-06-11T06:56:30.596Z,267
2018-06-11T06:57:30.537Z,278
2018-06-11T06:58:30.611Z,285
2018-06-11T06:59:30.672Z,285
2018-06-11T07:00:30.598Z,277
2018-06-11T07:01:30.653Z,269
2018-06-11T07:02:30.598Z,262
2018-06-11T07:03:30.662Z,251
2018-06-11T07:04:30.615Z,239
2018-06-11T07:05:30.615Z,230
2018-06-11T07:06:30.608Z,229
2018-06-11T07:07:30.616Z,237
2018-06-11T07:08:30.566Z,239
2018-06-11T07:09:30.640Z,235
2018-06-11T07:10:30.648Z,222
2018-06-11T07:11:30.545Z,211
2018-06-11T07:12:30.669Z,213
2018-06-11T07:13:30.663Z,220
2018-06-11T07:14:30.663Z,232
2018-06-11T07:15:30.612Z,236
2018-06-11T07:16:30.705Z,236
2018-06-11T07:17:30.672Z,230
2018-06-11T07:18:30.611Z,224
2018-06-11T07:19:30.678Z,226
2018-06-11T07:20:30.666Z,232
2018-06-11T07:21:30.573Z,241
2018-06-11T07:22:30.677Z,248
2018-06-11T07:23:30.572Z,249
2018-06-11T07:24:30.660Z,248
2018-06-11T07:25:30.538Z,247
2018-06-11T07:26:30.580Z,239
2018-06-11T07:27:30.522Z,237
2018-06-11T07:28:30.608Z,229
2018-06-11T07:29:30.523Z,205
2018-06-11T07:30:30.586Z,194
2018-06-11T07:31:30.635Z,198
2018-06-11T07:32:30.641Z,198
2018-06-11T07:33:30.689Z,198
2018-06-11T07:34:30.635Z,203
2018-06-11T07:35:30.659Z,208
2018-06-11T07:36:30.592Z,211
2018-06-11T07:37:30.594Z,215
2018-06-11T07:38:30.618Z,227
2018-06-11T07:39:30.684Z,240
2018-06-11T07:40:30.599Z,253
2018-06-11T07:41:30.614Z,270
2018-06-11T07:42:30.694Z,296
2018-06-11T07:43:30.597Z,329
2018-06-11T07:44:30.665Z,375
2018-06-11T07:45:30.617Z,415
2018-06-11T07:46:30.542Z,419
2018-06-11T07:47:30.573Z,406
2018-06-11T07:48:30.587Z,403
2018-06-11T07:49:30.598Z,395
2018-06-11T07:50:30.620Z,372
2018-06-11T07:51:30.592Z,332
2018-06-11T07:52:30.576Z,308
2018-06-11T07:53:30.619Z,316
2018-06-11T07:54:30.595Z,345
2018-06-11T07:55:30.653Z,363
2018-06-11T07:56:30.641Z,364
2018-06-11T07:57:30.636Z,350
2018-06-11T07:58:30.639Z,342
2018-06-11T07:59:30.718Z,326
2018-06-11T08:00:30.712Z,314
2018-06-11T08:01:30.696Z,326
2018-06-11T08:02:30.598Z,352
2018-06-11T08:03:30.707Z,389
2018-06-11T08:04:30.709Z,387
2018-06-11T08:05:30.752Z,365
2018-06-11T08:06:30.714Z,355
2018-06-11T08:07:30.769Z,345
2018-06-11T08:08:30.704Z,333
2018-06-11T08:09:30.717Z,318
2018-06-11T08:10:30.685Z,316
2018-06-11T08:11:30.700Z,316
2018-06-11T08:12:30.684Z,311
2018-06-11T08:13:30.785Z,300
2018-06-11T08:14:30.621Z,286
2018-06-11T08:15:30.618Z,279
2018-06-11T08:16:30.688Z,288
2018-06-11T08:17:30.622Z,304
2018-06-11T08:18:30.688Z,323
2018-06-11T08:19:30.620Z,331
2018-06-11T08:20:30.624Z,345
2018-06-11T08:21:30.621Z,361
2018-06-11T08:22:30.649Z,377
2018-06-11T08:23:30.624Z,377
2018-06-11T08:24:30.694Z,368
2018-06-11T08:25:30.682Z,362
2018-06-11T08:26:30.616Z,371
2018-06-11T08:27:30.762Z,376
2018-06-11T08:28:30.680Z,380
2018-06-11T08:29:30.689Z,405
2018-06-11T08:30:30.684Z,433
2018-06-11T08:31:30.688Z,430
2018-06-11T08:32:30.634Z,409
2018-06-11T08:33:30.690Z,387
2018-06-11T08:34:30.654Z,374
2018-06-11T08:35:30.701Z,380
2018-06-11T08:36:30.666Z,404
2018-06-11T08:37:30.715Z,442
2018-06-11T08:38:30.725Z,488
2018-06-11T08:39:30.701Z,556
2018-06-11T08:40:30.703Z,562
2018-06-11T08:41:30.708Z,544
2018-06-11T08:42:30.612Z,534
2018-06-11T08:43:30.611Z,520
2018-06-11T08:44:30.721Z,505
2018-06-11T08:45:30.641Z,480
2018-06-11T08:46:30.627Z,470
2018-06-11T08:47:30.744Z,477
2018-06-11T08:48:30.730Z,485
2018-06-11T08:49:30.672Z,503
2018-06-11T08:50:30.708Z,522
2018-06-11T08:51:30.685Z,557
2018-06-11T08:52:30.679Z,590
2018-06-11T08:53:30.709Z,595
2018-06-11T08:54:30.750Z,603
2018-06-11T08:55:30.713Z,593
2018-06-11T08:56:30.644Z,589
2018-06-11T08:57:30.691Z,613
2018-06-11T08:58:30.651Z,715
2018-06-11T08:59:30.651Z,718
2018-06-11T09:00:30.646Z,627
2018-06-11T09:01:30.600Z,616
2018-06-11T09:02:30.653Z,593
2018-06-11T09:03:30.650Z,548
2018-06-11T09:04:30.718Z,534
2018-06-11T09:05:30.677Z,479
2018-06-11T09:06:30.698Z,451
2018-06-11T09:07:30.758Z,491
2018-06-11T09:08:30.800Z,581
2018-06-11T09:09:30.690Z,620
2018-06-11T09:10:30.755Z,619
2018-06-11T09:11:30.697Z,629
2018-06-11T09:12:30.692Z,629
2018-06-11T09:13:30.721Z,601
2018-06-11T09:14:30.753Z,590
2018-06-11T09:15:30.765Z,590
2018-06-11T09:16:30.751Z,592
2018-06-11T09:17:30.704Z,592
2018-06-11T09:18:30.820Z,597
2018-06-11T09:19:30.705Z,604
2018-06-11T09:20:30.686Z,601
2018-06-11T09:21:30.669Z,604
2018-06-11T09:22:30.655Z,604
2018-06-11T09:23:30.633Z,599
2018-06-11T09:24:30.747Z,600
2018-06-11T09:25:30.651Z,597
2018-06-11T09:26:30.703Z,598
2018-06-11T09:27:30.656Z,639
2018-06-11T09:28:30.686Z,606
2018-06-11T09:29:30.752Z,623
2018-06-11T09:30:30.731Z,618
2018-06-11T09:31:30.702Z,629
2018-06-11T09:32:30.733Z,631
2018-06-11T09:33:30.713Z,636
2018-06-11T09:34:30.778Z,666
2018-06-11T09:35:30.662Z,728
2018-06-11T09:36:30.739Z,754
2018-06-11T09:37:30.719Z,743
2018-06-11T09:38:30.660Z,722
2018-06-11T09:39:30.716Z,756
2018-06-11T09:40:30.702Z,1118
2018-06-11T09:41:30.719Z,767
2018-06-11T09:42:30.718Z,725
2018-06-11T09:43:30.680Z,764
2018-06-11T09:44:30.650Z,850
2018-06-11T09:45:30.706Z,1501
2018-06-11T09:46:30.668Z,1457
2018-06-11T09:47:30.746Z,1339
2018-06-11T09:48:30.761Z,1359
2018-06-11T09:49:30.750Z,1216
2018-06-11T09:50:30.730Z,1044
2018-06-11T09:51:30.785Z,897
2018-06-11T09:52:30.750Z,1150
2018-06-11T09:53:30.789Z,1114
2018-06-11T09:54:30.706Z,1193
2018-06-11T09:55:30.728Z,1242
2018-06-11T09:56:30.782Z,1225
2018-06-11T09:57:30.752Z,1157
2018-06-11T09:58:30.778Z,849
2018-06-11T09:59:30.751Z,692
2018-06-11T10:00:30.793Z,865
2018-06-11T10:01:30.659Z,935
2018-06-11T10:02:30.734Z,1182
2018-06-11T10:03:30.790Z,1075
2018-06-11T10:04:30.756Z,729
2018-06-11T10:05:30.721Z,875
2018-06-11T10:06:30.721Z,764
2018-06-11T10:07:30.728Z,777
2018-06-11T10:08:30.696Z,861
2018-06-11T10:09:30.790Z,895
2018-06-11T10:10:30.669Z,1177
2018-06-11T10:11:30.826Z,1132
2018-06-11T10:12:30.826Z,1018
2018-06-11T10:13:30.778Z,1124
2018-06-11T10:14:30.736Z,1131
2018-06-11T10:15:30.778Z,1055
2018-06-11T10:16:30.787Z,1067
2018-06-11T10:17:30.725Z,1092
2018-06-11T10:18:30.721Z,1100
2018-06-11T10:19:30.734Z,1093
2018-06-11T10:20:30.762Z,1096
2018-06-11T10:21:30.743Z,1103
2018-06-11T10:22:30.736Z,1103
2018-06-11T10:23:30.750Z,1100
2018-06-11T10:24:30.795Z,1101
2018-06-11T10:25:30.723Z,1108
2018-06-11T10:26:30.709Z,1103
2018-06-11T10:27:30.677Z,1082
2018-06-11T10:28:30.799Z,1084
2018-06-11T10:29:30.810Z,1089
2018-06-11T10:30:30.739Z,1086
2018-06-11T10:31:30.799Z,1089
2018-06-11T10:32:30.695Z,1083
2018-06-11T10:33:30.738Z,1068
2018-06-11T10:34:30.733Z,1088
2018-06-11T10:35:30.684Z,1079
2018-06-11T10:36:30.711Z,1081
2018-06-11T10:37:30.781Z,1077
2018-06-11T10:38:30.715Z,1080
2018-06-11T10:39:30.780Z,1084
2018-06-11T10:40:30.712Z,1059
2018-06-11T10:41:30.784Z,1051
2018-06-11T10:42:30.717Z,1062
2018-06-11T10:43:30.785Z,1070
2018-06-11T10:44:30.713Z,1075
2018-06-11T10:45:30.786Z,1077
2018-06-11T10:46:30.685Z,1079
2018-06-11T10:47:30.684Z,1068
2018-06-11T10:48:30.817Z,1078
2018-06-11T10:49:30.784Z,1093
2018-06-11T10:50:30.787Z,1086
2018-06-11T10:51:30.815Z,1089
2018-06-11T10:52:30.791Z,1083
2018-06-11T10:53:30.709Z,1083
2018-06-11T10:54:30.760Z,1086
2018-06-11T10:55:30.759Z,1075
2018-06-11T10:56:30.791Z,1090
2018-06-11T10:57:30.794Z,1062
2018-06-11T10:58:30.733Z,1062
2018-06-11T10:59:30.752Z,1091
2018-06-11T11:00:30.808Z,1088
2018-06-11T11:01:30.798Z,1092
2018-06-11T11:02:30.786Z,1091
2018-06-11T11:03:30.730Z,1077
2018-06-11T11:04:30.806Z,1083
2018-06-11T11:05:30.730Z,1069
2018-06-11T11:06:30.813Z,1083
2018-06-11T11:07:30.825Z,1087
2018-06-11T11:08:30.766Z,1086
2018-06-11T11:09:30.762Z,1084
2018-06-11T11:10:30.841Z,1088
2018-06-11T11:11:30.801Z,1071
2018-06-11T11:12:30.806Z,1084
2018-06-11T11:13:30.840Z,1089
2018-06-11T11:14:30.724Z,1084
2018-06-11T11:15:30.890Z,1091
2018-06-11T11:16:30.826Z,1093
2018-06-11T11:17:30.764Z,1069
2018-06-11T11:18:30.770Z,1068
2018-06-11T11:19:30.845Z,1032
2018-06-11T11:20:30.839Z,1064
2018-06-11T11:21:30.809Z,1033
2018-06-11T11:22:30.787Z,1015
2018-06-11T11:23:30.809Z,1025
2018-06-11T11:24:30.790Z,1030
2018-06-11T11:25:30.778Z,1043
2018-06-11T11:26:30.831Z,1069
2018-06-11T11:27:30.839Z,1082
2018-06-11T11:28:30.836Z,1077
2018-06-11T11:29:30.737Z,1063
2018-06-11T11:30:30.814Z,1066
2018-06-11T11:31:30.784Z,1109
2018-06-11T11:32:30.773Z,1100
2018-06-11T11:33:30.739Z,1109
2018-06-11T11:34:30.794Z,1105
2018-06-11T11:35:30.855Z,1093
2018-06-11T11:36:30.722Z,1059
2018-06-11T11:37:30.776Z,1091
2018-06-11T11:38:30.753Z,1102
2018-06-11T11:39:30.716Z,1107
2018-06-11T11:40:30.857Z,1117
2018-06-11T11:41:30.852Z,1129
2018-06-11T11:42:30.783Z,1123
2018-06-11T11:43:30.859Z,953
2018-06-11T11:44:30.842Z,825
2018-06-11T11:45:30.722Z,766
2018-06-11T11:46:30.709Z,875
2018-06-11T11:47:30.808Z,917
2018-06-11T11:48:30.815Z,1027
2018-06-11T11:49:30.811Z,1110
2018-06-11T11:50:30.732Z,1121
2018-06-11T11:51:30.823Z,1115
2018-06-11T11:52:30.736Z,1111
2018-06-11T11:53:30.739Z,1101
2018-06-11T11:54:30.738Z,1078
2018-06-11T11:55:30.830Z,1096
2018-06-11T11:56:30.785Z,1100
2018-06-11T11:57:30.834Z,1099
2018-06-11T11:58:30.857Z,1097
2018-06-11T11:59:30.863Z,1089
2018-06-11T12:00:30.850Z,1091
2018-06-11T12:01:30.871Z,1098
2018-06-11T12:02:30.812Z,1096
2018-06-11T12:03:30.790Z,1099
2018-06-11T12:04:30.858Z,1099
2018-06-11T12:05:30.859Z,1096
2018-06-11T12:06:30.814Z,1091
2018-06-11T12:07:30.747Z,1103
2018-06-11T12:08:30.857Z,1090
2018-06-11T12:09:30.742Z,1084
2018-06-11T12:10:30.745Z,1097
2018-06-11T12:11:30.743Z,1090
2018-06-11T12:12:30.863Z,1083
2018-06-11T12:13:30.809Z,1104
2018-06-11T12:14:30.801Z,1083
2018-06-11T12:15:30.755Z,1071
2018-06-11T12:16:30.777Z,1062
2018-06-11T12:17:30.844Z,1034
2018-06-11T12:18:30.777Z,1069
2018-06-11T12:19:30.850Z,1079
2018-06-11T12:20:30.790Z,1091
2018-06-11T12:21:30.854Z,1039
2018-06-11T12:22:30.850Z,1094
2018-06-11T12:23:30.783Z,1089
2018-06-11T12:24:30.856Z,1020
2018-06-11T12:25:30.849Z,1059
2018-06-11T12:26:30.853Z,1110
2018-06-11T12:27:30.757Z,1091
2018-06-11T12:28:30.821Z,1064
2018-06-11T12:29:30.811Z,1092
2018-06-11T12:30:30.880Z,1058
2018-06-11T12:31:30.892Z,1044
2018-06-11T12:32:30.760Z,1059
2018-06-11T12:33:30.836Z,1028
2018-06-11T12:34:30.833Z,987
2018-06-11T12:35:30.880Z,969
2018-06-11T12:36:30.791Z,983
2018-06-11T12:37:30.848Z,996
2018-06-11T12:38:30.789Z,1000
2018-06-11T12:39:30.857Z,985
2018-06-11T12:40:30.853Z,934
2018-06-11T12:41:30.854Z,890
2018-06-11T12:42:30.764Z,887
2018-06-11T12:43:30.858Z,883
2018-06-11T12:44:30.767Z,800
2018-06-11T12:45:30.867Z,781
2018-06-11T12:46:30.896Z,730
2018-06-11T12:47:30.881Z,772
2018-06-11T12:48:30.897Z,751
2018-06-11T12:49:30.771Z,870
2018-06-11T12:50:30.829Z,862
2018-06-11T12:51:30.848Z,937
2018-06-11T12:52:30.873Z,911
2018-06-11T12:53:30.768Z,753
2018-06-11T12:54:30.829Z,878
2018-06-11T12:55:30.849Z,1066
2018-06-11T12:56:30.847Z,1102
2018-06-11T12:57:30.889Z,994
2018-06-11T12:58:30.831Z,1051
2018-06-11T12:59:30.900Z,1085
2018-06-11T13:00:30.904Z,1095
2018-06-11T13:01:30.852Z,1070
2018-06-11T13:02:30.826Z,1038
2018-06-11T13:03:30.846Z,1015
2018-06-11T13:04:30.842Z,989
2018-06-11T13:05:30.905Z,988
2018-06-11T13:06:30.843Z,902
2018-06-11T13:07:30.909Z,1040
2018-06-11T13:08:30.777Z,1022
2018-06-11T13:09:30.910Z,1037
2018-06-11T13:10:30.899Z,924
2018-06-11T13:11:30.858Z,1020
2018-06-11T13:12:30.846Z,1007
2018-06-11T13:13:30.845Z,1042
2018-06-11T13:14:30.885Z,1027
2018-06-11T13:15:30.922Z,985
2018-06-11T13:16:30.878Z,824
2018-06-11T13:17:30.773Z,763
2018-06-11T13:18:30.884Z,813
2018-06-11T13:19:30.773Z,865
2018-06-11T13:20:30.870Z,867
2018-06-11T13:21:30.760Z,795
2018-06-11T13:22:30.796Z,951
2018-06-11T13:23:30.923Z,970
2018-06-11T13:24:30.871Z,705
2018-06-11T13:25:30.835Z,1075
2018-06-11T13:26:30.802Z,1045
2018-06-11T13:27:30.933Z,1056
2018-06-11T13:28:30.912Z,1035
2018-06-11T13:29:30.876Z,1052
2018-06-11T13:30:30.830Z,1029
2018-06-11T13:31:30.895Z,1024
2018-06-11T13:32:30.924Z,1015
2018-06-11T13:33:30.893Z,973
2018-06-11T13:34:30.803Z,1015
2018-06-11T13:35:30.800Z,1045
2018-06-11T13:36:30.820Z,641
2018-06-11T13:37:30.804Z,686
2018-06-11T13:38:30.873Z,615
2018-06-11T13:39:30.877Z,602
2018-06-11T13:40:30.930Z,660
2018-06-11T13:41:30.861Z,729
2018-06-11T13:42:30.806Z,652
2018-06-11T13:43:30.902Z,642
2018-06-11T13:44:30.913Z,670
2018-06-11T13:45:30.899Z,581
2018-06-11T13:46:30.812Z,693
2018-06-11T13:47:30.877Z,609
2018-06-11T13:48:30.806Z,709
2018-06-11T13:49:30.924Z,771
2018-06-11T13:50:30.908Z,594
2018-06-11T13:51:30.945Z,809
2018-06-11T13:52:30.925Z,783
2018-06-11T13:53:30.939Z,702
2018-06-11T13:54:30.946Z,752
2018-06-11T13:55:30.937Z,720
2018-06-11T13:56:30.840Z,649
2018-06-11T13:57:30.925Z,684
2018-06-11T13:58:30.917Z,629
2018-06-11T13:59:30.850Z,561
2018-06-11T14:00:30.850Z,546
2018-06-11T14:01:30.843Z,583
2018-06-11T14:02:30.924Z,586